Terminal Aerodrome Forecast
Issued by NWS

Home | Current Version | Previous Version | Text Only | Print | Product List | Glossary On
Versions: 1 2 3 4 5 6 7 8 9 10 11 12 13 14 15 16 17 18 19 20 21 22 23 24 25 26 27 28 29 30 31 32
000
FTUS42 KRAH 191308 AAA
TAFRWI
TAF AMD
KRWI 191308Z 1913/2012 20006KT P6SM OVC008
     FM191500 23008KT P6SM BKN014 BKN120
     FM191700 23008KT P6SM VCSH SCT030 BKN045 BKN250
      TEMPO 1919/1923 VRB15G25KT 3SM -TSRA SCT025 BKN040CB BKN110=

USA.gov is the U.S. government's official web portal to all federal, state and local government web resources and services.